Shirahamamaru — JG4872 — position and weather

sailwx.info

Track history (hours):
 
Tides and Currents Weather Stations Pressure Air Temp Water Temp Dewpoint Dewpoint Depression Visibility Wind Speed Wind Dir Waves Ship Positions

Shirahamamaru

Last reported at 2015-Sep-02 10:33 UTC. Time now 2015-Sep-02 19:02 UTC.
Position N 35°12' E 139°46'.

Length 79 m; draft 3.2 m.

Type: Passenger vessel. MMSI: 431000239.

Date/timePositionNaut miles runAvg speedWind from/ knotsBaromVisibWave heightAir tempDewpointWater temp
2015-Sep-02 10:33N 35°12' E 139°46'2 2.2
2015-Sep-02 09:33N 35°11' E 139°48'4 4.2
2015-Sep-02 08:33N 35°13' E 139°44'5 5.1
2015-Sep-02 07:33N 35°10' E 139°49'5 5.2
2015-Sep-02 06:32N 35°13' E 139°43'0 0.5
2015-Sep-02 05:33N 35°13' E 139°43'6 5.9
2015-Sep-02 04:33N 35°10' E 139°49'2 2.5
2015-Sep-02 03:33N 35°11' E 139°46'3 3.4
2015-Sep-02 02:34N 35°13' E 139°43'5 4.5
2015-Sep-02 01:34N 35°11' E 139°48'4 3.8
2015-Sep-02 00:34N 35°13' E 139°44'2 2.0
2015-Sep-01 23:33N 35°12' E 139°46'1 1.2
2015-Sep-01 22:33N 35°13' E 139°45'2 2.1
2015-Sep-01 21:33N 35°11' E 139°47'1 0.1
2015-Sep-01 10:33N 35°12' E 139°46'2 2.0
2015-Sep-01 09:33N 35°11' E 139°48'4 4.0
2015-Sep-01 08:33N 35°13' E 139°44'5 5.0
2015-Sep-01 07:33N 35°10' E 139°49'5 5.0
2015-Sep-01 06:33N 35°13' E 139°44'1 0.7
2015-Sep-01 05:33N 35°13' E 139°43'6 5.8
2015-Sep-01 04:33N 35°10' E 139°49'6 5.9
2015-Sep-01 03:34N 35°13' E 139°43'6 5.9
2015-Sep-01 02:33N 35°10' E 139°49'4 4.3
2015-Sep-01 01:33N 35°13' E 139°45'2 2.1
2015-Sep-01 00:33N 35°11' E 139°47'2 2.3
2015-Aug-31 23:34N 35°13' E 139°44'1 1.4
2015-Aug-31 22:33N 35°12' E 139°46'1 1.2
2015-Aug-31 21:33N 35°13' E 139°45'2 1.6
2015-Aug-31 20:33N 35°13' E 139°43'0 0.0
2015-Aug-31 11:10N 35°13' E 139°43'6 9.2
2015-Aug-31 10:33N 35°10' E 139°49'3 3.1
2015-Aug-31 09:33N 35°12' E 139°46'1 1.2
2015-Aug-31 08:33N 35°11' E 139°47'2 2.4
2015-Aug-31 07:33N 35°13' E 139°44'2 2.5
2015-Aug-31 06:34N 35°12' E 139°47'2 2.1
2015-Aug-31 05:33N 35°10' E 139°49'6 5.8
2015-Aug-31 04:33N 35°13' E 139°43'0 0.2
2015-Aug-31 03:33N 35°13' E 139°43'6 5.8
2015-Aug-31 02:33N 35°10' E 139°49'5 4.6
2015-Aug-31 01:33N 35°13' E 139°45'3 2.5
2015-Aug-31 00:33N 35°11' E 139°47'3 2.5
2015-Aug-30 23:32N 35°13' E 139°44'2 1.7
2015-Aug-30 22:33N 35°12' E 139°46'2 1.5
2015-Aug-30 21:33N 35°13' E 139°44'1 1.4
2015-Aug-30 20:34N 35°13' E 139°43'0 0.0
2015-Aug-30 11:08N 35°13' E 139°43'6 9.9
2015-Aug-30 10:33N 35°10' E 139°49'3 3.3
2015-Aug-30 09:33N 35°12' E 139°45'1 1.5
2015-Aug-30 08:33N 35°12' E 139°47'2 2.4
2015-Aug-30 07:33N 35°13' E 139°45'2 2.4
2015-Aug-30 06:33N 35°11' E 139°47'2 2.2
2015-Aug-30 05:33N 35°13' E 139°45'1 1.3
2015-Aug-30 04:33N 35°12' E 139°46'0 0.5
2015-Aug-30 03:33N 35°12' E 139°46'1 1.5
2015-Aug-30 02:33N 35°11' E 139°47'2 2.4
2015-Aug-30 01:32N 35°13' E 139°45'3 2.6
2015-Aug-30 00:33N 35°11' E 139°47'2 2.3
2015-Aug-29 23:34N 35°13' E 139°45'2 1.6
2015-Aug-29 22:33N 35°11' E 139°46'2 1.9
2015-Aug-29 21:33N 35°13' E 139°45'1 0.1
2015-Aug-29 11:08N 35°13' E 139°43'6 9.8
2015-Aug-29 10:33N 35°10' E 139°49'3 3.0
2015-Aug-29 09:33N 35°12' E 139°46'1 1.0
2015-Aug-29 08:33N 35°12' E 139°47'2 2.0
2015-Aug-29 07:33N 35°13' E 139°45'2 2.3
2015-Aug-29 06:34N 35°12' E 139°47'2 2.2
2015-Aug-29 05:34N 35°13' E 139°45'1 1.3
2015-Aug-29 04:33N 35°12' E 139°46'0 0.4
2015-Aug-29 03:33N 35°12' E 139°46'1 1.2
2015-Aug-29 02:33N 35°11' E 139°47'3 2.5
2015-Aug-29 01:32N 35°13' E 139°44'3 2.7
2015-Aug-29 00:33N 35°11' E 139°47'3 2.7
2015-Aug-28 23:32N 35°13' E 139°44'2 1.7
2015-Aug-28 22:33N 35°12' E 139°46'2 1.7
2015-Aug-28 21:30N 35°13' E 139°44'1 1.2
2015-Aug-28 20:33N 35°13' E 139°43'0 0.0
2015-Aug-28 19:33N 35°13' E 139°43'0 0.0
2015-Aug-28 18:33N 35°13' E 139°43'0 0.0
2015-Aug-28 17:33N 35°13' E 139°43'0 0.0
2015-Aug-28 16:33N 35°13' E 139°43'0 0.0
2015-Aug-28 15:33N 35°13' E 139°43'0 0.0
2015-Aug-28 14:33N 35°13' E 139°43'0 0.0
2015-Aug-28 13:33N 35°13' E 139°43'0 0.0
2015-Aug-28 12:33N 35°13' E 139°43'0 0.0
2015-Aug-28 11:33N 35°13' E 139°43'6 5.7
2015-Aug-28 10:33N 35°10' E 139°49'3 3.0
2015-Aug-28 09:33N 35°12' E 139°46'1 1.2
2015-Aug-28 08:33N 35°11' E 139°47'2 2.4
2015-Aug-28 07:31N 35°13' E 139°45'2 2.4
2015-Aug-28 06:33N 35°11' E 139°47'2 2.2
2015-Aug-28 05:33N 35°10' E 139°49'6 5.9
2015-Aug-28 04:33N 35°13' E 139°43'0 0.4
2015-Aug-28 03:33N 35°13' E 139°43'6 5.6
2015-Aug-28 02:33N 35°10' E 139°49'5 4.6
2015-Aug-28 01:32N 35°13' E 139°44'3 2.6
2015-Aug-28 00:33N 35°11' E 139°47'3 2.5
2015-Aug-27 23:33N 35°13' E 139°44'2 1.6
2015-Aug-27 22:33N 35°12' E 139°46'2 1.5
2015-Aug-27 21:33N 35°13' E 139°44'1 1.3
2015-Aug-27 20:33N 35°13' E 139°43'0 0.0
2015-Aug-27 11:08N 35°13' E 139°43'6 9.6
2015-Aug-27 10:33N 35°10' E 139°49'4 3.6
2015-Aug-27 09:33N 35°13' E 139°46'2 1.8
2015-Aug-27 08:33N 35°11' E 139°47'3 2.5
2015-Aug-27 07:33N 35°13' E 139°44'2 2.4
2015-Aug-27 06:33N 35°11' E 139°47'2 2.2
2015-Aug-27 05:33N 35°10' E 139°49'6 5.9
2015-Aug-27 04:33N 35°13' E 139°43'0 0.2
2015-Aug-27 03:33N 35°13' E 139°43'6 5.8
2015-Aug-27 02:33N 35°10' E 139°49'5 4.6
2015-Aug-27 01:33N 35°13' E 139°44'3 2.6
2015-Aug-27 00:33N 35°11' E 139°47'3 2.6
2015-Aug-26 23:33N 35°13' E 139°45'1 1.5
2015-Aug-26 22:33N 35°12' E 139°46'1 1.4
2015-Aug-26 21:33N 35°13' E 139°45'2 0.1
2015-Aug-26 11:09N 35°13' E 139°43'6 9.7
2015-Aug-26 10:33N 35°10' E 139°49'3 3.1
2015-Aug-26 09:33N 35°12' E 139°46'2 1.5
2015-Aug-26 08:33N 35°11' E 139°47'3 2.7
2015-Aug-26 07:33N 35°13' E 139°45'3 2.6
2015-Aug-26 06:33N 35°11' E 139°47'2 2.0
2015-Aug-26 05:33N 35°10' E 139°49'6 5.9
2015-Aug-26 04:33N 35°13' E 139°43'0 0.3
2015-Aug-26 03:33N 35°13' E 139°43'6 5.7
2015-Aug-26 02:33N 35°10' E 139°49'4 4.2
2015-Aug-26 01:33N 35°13' E 139°45'2 2.3
2015-Aug-26 00:34N 35°11' E 139°47'2 2.4
2015-Aug-25 23:33N 35°13' E 139°45'1 1.5
2015-Aug-25 22:33N 35°12' E 139°46'2 1.6
2015-Aug-25 21:33N 35°13' E 139°45'1 0.1
2015-Aug-25 11:09N 35°13' E 139°43'6 9.8
2015-Aug-25 10:34N 35°10' E 139°49'3 3.0
2015-Aug-25 09:33N 35°12' E 139°46'1 1.1
2015-Aug-25 08:33N 35°11' E 139°47'2 2.4
2015-Aug-25 07:33N 35°13' E 139°45'3 2.7
2015-Aug-25 06:33N 35°11' E 139°47'2 1.9
2015-Aug-25 05:33N 35°10' E 139°49'6 5.9
2015-Aug-25 04:33N 35°13' E 139°43'0 0.1
2015-Aug-25 03:33N 35°13' E 139°43'6 5.8
2015-Aug-25 02:32N 35°10' E 139°49'4 4.4
2015-Aug-25 01:33N 35°13' E 139°45'2 2.2
2015-Aug-25 00:33N 35°12' E 139°47'2 2.0
2015-Aug-24 23:33N 35°13' E 139°45'1 1.1
2015-Aug-24 22:33N 35°12' E 139°46'1 1.2
2015-Aug-24 21:33N 35°13' E 139°45'2 0.2
2015-Aug-24 11:20N 35°13' E 139°43'6 7.2
2015-Aug-24 10:33N 35°10' E 139°49'3 3.3
2015-Aug-24 09:33N 35°13' E 139°46'1 1.4
2015-Aug-24 08:33N 35°12' E 139°47'2 2.0
2015-Aug-24 07:33N 35°13' E 139°45'2 2.0
2015-Aug-24 06:33N 35°12' E 139°47'2 2.1
2015-Aug-24 05:33N 35°10' E 139°49'6 5.9
2015-Aug-24 04:33N 35°13' E 139°43'0 0.3
2015-Aug-24 03:33N 35°13' E 139°43'6 5.7
2015-Aug-24 02:33N 35°10' E 139°49'4 4.4
2015-Aug-24 01:33N 35°13' E 139°45'2 2.3
2015-Aug-24 00:33N 35°11' E 139°47'2 2.4
2015-Aug-23 23:33N 35°13' E 139°45'1 1.5
2015-Aug-23 22:33N 35°12' E 139°46'1 1.4
2015-Aug-23 21:33N 35°13' E 139°45'2 1.5
2015-Aug-23 20:33N 35°13' E 139°43'0 0.0
2015-Aug-23 11:09N 35°13' E 139°43'6 9.7
2015-Aug-23 10:34N 35°10' E 139°49'  
Track history (hours):
 
Tides and Currents Weather Stations Pressure Air Temp Water Temp Dewpoint Dewpoint Depression Visibility Wind Speed Wind Dir Waves Ship Positions

Shirahamamaru

Last reported at 2015-Sep-02 10:33 UTC. Time now 2015-Sep-02 19:02 UTC.
Position N 35°12' E 139°46'.

Length 79 m; draft 3.2 m.

Type: Passenger vessel. MMSI: 431000239.

Date/timePositionNaut miles runAvg speedWind from/ knotsBaromVisibWave heightAir tempDewpointWater temp
2015-Sep-02 10:33N 35°12' E 139°46'2 2.2
2015-Sep-02 09:33N 35°11' E 139°48'4 4.2
2015-Sep-02 08:33N 35°13' E 139°44'5 5.1
2015-Sep-02 07:33N 35°10' E 139°49'5 5.2
2015-Sep-02 06:32N 35°13' E 139°43'0 0.5
2015-Sep-02 05:33N 35°13' E 139°43'6 5.9
2015-Sep-02 04:33N 35°10' E 139°49'2 2.5
2015-Sep-02 03:33N 35°11' E 139°46'3 3.4
2015-Sep-02 02:34N 35°13' E 139°43'5 4.5
2015-Sep-02 01:34N 35°11' E 139°48'4 3.8
2015-Sep-02 00:34N 35°13' E 139°44'2 2.0
2015-Sep-01 23:33N 35°12' E 139°46'1 1.2
2015-Sep-01 22:33N 35°13' E 139°45'2 2.1
2015-Sep-01 21:33N 35°11' E 139°47'1 0.1
2015-Sep-01 10:33N 35°12' E 139°46'2 2.0
2015-Sep-01 09:33N 35°11' E 139°48'4 4.0
2015-Sep-01 08:33N 35°13' E 139°44'5 5.0
2015-Sep-01 07:33N 35°10' E 139°49'5 5.0
2015-Sep-01 06:33N 35°13' E 139°44'1 0.7
2015-Sep-01 05:33N 35°13' E 139°43'6 5.8
2015-Sep-01 04:33N 35°10' E 139°49'6 5.9
2015-Sep-01 03:34N 35°13' E 139°43'6 5.9
2015-Sep-01 02:33N 35°10' E 139°49'4 4.3
2015-Sep-01 01:33N 35°13' E 139°45'2 2.1
2015-Sep-01 00:33N 35°11' E 139°47'2 2.3
2015-Aug-31 23:34N 35°13' E 139°44'1 1.4
2015-Aug-31 22:33N 35°12' E 139°46'1 1.2
2015-Aug-31 21:33N 35°13' E 139°45'2 1.6
2015-Aug-31 20:33N 35°13' E 139°43'0 0.0
2015-Aug-31 11:10N 35°13' E 139°43'6 9.2
2015-Aug-31 10:33N 35°10' E 139°49'3 3.1
2015-Aug-31 09:33N 35°12' E 139°46'1 1.2
2015-Aug-31 08:33N 35°11' E 139°47'2 2.4
2015-Aug-31 07:33N 35°13' E 139°44'2 2.5
2015-Aug-31 06:34N 35°12' E 139°47'2 2.1
2015-Aug-31 05:33N 35°10' E 139°49'6 5.8
2015-Aug-31 04:33N 35°13' E 139°43'0 0.2
2015-Aug-31 03:33N 35°13' E 139°43'6 5.8
2015-Aug-31 02:33N 35°10' E 139°49'5 4.6
2015-Aug-31 01:33N 35°13' E 139°45'3 2.5
2015-Aug-31 00:33N 35°11' E 139°47'3 2.5
2015-Aug-30 23:32N 35°13' E 139°44'2 1.7
2015-Aug-30 22:33N 35°12' E 139°46'2 1.5
2015-Aug-30 21:33N 35°13' E 139°44'1 1.4
2015-Aug-30 20:34N 35°13' E 139°43'0 0.0
2015-Aug-30 11:08N 35°13' E 139°43'6 9.9
2015-Aug-30 10:33N 35°10' E 139°49'3 3.3
2015-Aug-30 09:33N 35°12' E 139°45'1 1.5
2015-Aug-30 08:33N 35°12' E 139°47'2 2.4
2015-Aug-30 07:33N 35°13' E 139°45'2 2.4
2015-Aug-30 06:33N 35°11' E 139°47'2 2.2
2015-Aug-30 05:33N 35°13' E 139°45'1 1.3
2015-Aug-30 04:33N 35°12' E 139°46'0 0.5
2015-Aug-30 03:33N 35°12' E 139°46'1 1.5
2015-Aug-30 02:33N 35°11' E 139°47'2 2.4
2015-Aug-30 01:32N 35°13' E 139°45'3 2.6
2015-Aug-30 00:33N 35°11' E 139°47'2 2.3
2015-Aug-29 23:34N 35°13' E 139°45'2 1.6
2015-Aug-29 22:33N 35°11' E 139°46'2 1.9
2015-Aug-29 21:33N 35°13' E 139°45'1 0.1
2015-Aug-29 11:08N 35°13' E 139°43'6 9.8
2015-Aug-29 10:33N 35°10' E 139°49'3 3.0
2015-Aug-29 09:33N 35°12' E 139°46'1 1.0
2015-Aug-29 08:33N 35°12' E 139°47'2 2.0
2015-Aug-29 07:33N 35°13' E 139°45'2 2.3
2015-Aug-29 06:34N 35°12' E 139°47'2 2.2
2015-Aug-29 05:34N 35°13' E 139°45'1 1.3
2015-Aug-29 04:33N 35°12' E 139°46'0 0.4
2015-Aug-29 03:33N 35°12' E 139°46'1 1.2
2015-Aug-29 02:33N 35°11' E 139°47'3 2.5
2015-Aug-29 01:32N 35°13' E 139°44'3 2.7
2015-Aug-29 00:33N 35°11' E 139°47'3 2.7
2015-Aug-28 23:32N 35°13' E 139°44'2 1.7
2015-Aug-28 22:33N 35°12' E 139°46'2 1.7
2015-Aug-28 21:30N 35°13' E 139°44'1 1.2
2015-Aug-28 20:33N 35°13' E 139°43'0 0.0
2015-Aug-28 19:33N 35°13' E 139°43'0 0.0
2015-Aug-28 18:33N 35°13' E 139°43'0 0.0
2015-Aug-28 17:33N 35°13' E 139°43'0 0.0
2015-Aug-28 16:33N 35°13' E 139°43'0 0.0
2015-Aug-28 15:33N 35°13' E 139°43'0 0.0
2015-Aug-28 14:33N 35°13' E 139°43'0 0.0
2015-Aug-28 13:33N 35°13' E 139°43'0 0.0
2015-Aug-28 12:33N 35°13' E 139°43'0 0.0
2015-Aug-28 11:33N 35°13' E 139°43'6 5.7
2015-Aug-28 10:33N 35°10' E 139°49'3 3.0
2015-Aug-28 09:33N 35°12' E 139°46'1 1.2
2015-Aug-28 08:33N 35°11' E 139°47'2 2.4
2015-Aug-28 07:31N 35°13' E 139°45'2 2.4
2015-Aug-28 06:33N 35°11' E 139°47'2 2.2
2015-Aug-28 05:33N 35°10' E 139°49'6 5.9
2015-Aug-28 04:33N 35°13' E 139°43'0 0.4
2015-Aug-28 03:33N 35°13' E 139°43'6 5.6
2015-Aug-28 02:33N 35°10' E 139°49'5 4.6
2015-Aug-28 01:32N 35°13' E 139°44'3 2.6
2015-Aug-28 00:33N 35°11' E 139°47'3 2.5
2015-Aug-27 23:33N 35°13' E 139°44'2 1.6
2015-Aug-27 22:33N 35°12' E 139°46'2 1.5
2015-Aug-27 21:33N 35°13' E 139°44'1 1.3
2015-Aug-27 20:33N 35°13' E 139°43'0 0.0
2015-Aug-27 11:08N 35°13' E 139°43'6 9.6
2015-Aug-27 10:33N 35°10' E 139°49'4 3.6
2015-Aug-27 09:33N 35°13' E 139°46'2 1.8
2015-Aug-27 08:33N 35°11' E 139°47'3 2.5
2015-Aug-27 07:33N 35°13' E 139°44'2 2.4
2015-Aug-27 06:33N 35°11' E 139°47'2 2.2
2015-Aug-27 05:33N 35°10' E 139°49'6 5.9
2015-Aug-27 04:33N 35°13' E 139°43'0 0.2
2015-Aug-27 03:33N 35°13' E 139°43'6 5.8
2015-Aug-27 02:33N 35°10' E 139°49'5 4.6
2015-Aug-27 01:33N 35°13' E 139°44'3 2.6
2015-Aug-27 00:33N 35°11' E 139°47'3 2.6
2015-Aug-26 23:33N 35°13' E 139°45'1 1.5
2015-Aug-26 22:33N 35°12' E 139°46'1 1.4
2015-Aug-26 21:33N 35°13' E 139°45'2 0.1
2015-Aug-26 11:09N 35°13' E 139°43'6 9.7
2015-Aug-26 10:33N 35°10' E 139°49'3 3.1
2015-Aug-26 09:33N 35°12' E 139°46'2 1.5
2015-Aug-26 08:33N 35°11' E 139°47'3 2.7
2015-Aug-26 07:33N 35°13' E 139°45'3 2.6
2015-Aug-26 06:33N 35°11' E 139°47'2 2.0
2015-Aug-26 05:33N 35°10' E 139°49'6 5.9
2015-Aug-26 04:33N 35°13' E 139°43'0 0.3
2015-Aug-26 03:33N 35°13' E 139°43'6 5.7
2015-Aug-26 02:33N 35°10' E 139°49'4 4.2
2015-Aug-26 01:33N 35°13' E 139°45'2 2.3
2015-Aug-26 00:34N 35°11' E 139°47'2 2.4
2015-Aug-25 23:33N 35°13' E 139°45'1 1.5
2015-Aug-25 22:33N 35°12' E 139°46'2 1.6
2015-Aug-25 21:33N 35°13' E 139°45'1 0.1
2015-Aug-25 11:09N 35°13' E 139°43'6 9.8
2015-Aug-25 10:34N 35°10' E 139°49'3 3.0
2015-Aug-25 09:33N 35°12' E 139°46'1 1.1
2015-Aug-25 08:33N 35°11' E 139°47'2 2.4
2015-Aug-25 07:33N 35°13' E 139°45'3 2.7
2015-Aug-25 06:33N 35°11' E 139°47'2 1.9
2015-Aug-25 05:33N 35°10' E 139°49'6 5.9
2015-Aug-25 04:33N 35°13' E 139°43'0 0.1
2015-Aug-25 03:33N 35°13' E 139°43'6 5.8
2015-Aug-25 02:32N 35°10' E 139°49'4 4.4
2015-Aug-25 01:33N 35°13' E 139°45'2 2.2
2015-Aug-25 00:33N 35°12' E 139°47'2 2.0
2015-Aug-24 23:33N 35°13' E 139°45'1 1.1
2015-Aug-24 22:33N 35°12' E 139°46'1 1.2
2015-Aug-24 21:33N 35°13' E 139°45'2 0.2
2015-Aug-24 11:20N 35°13' E 139°43'6 7.2
2015-Aug-24 10:33N 35°10' E 139°49'3 3.3
2015-Aug-24 09:33N 35°13' E 139°46'1 1.4
2015-Aug-24 08:33N 35°12' E 139°47'2 2.0
2015-Aug-24 07:33N 35°13' E 139°45'2 2.0
2015-Aug-24 06:33N 35°12' E 139°47'2 2.1
2015-Aug-24 05:33N 35°10' E 139°49'6 5.9
2015-Aug-24 04:33N 35°13' E 139°43'0 0.3
2015-Aug-24 03:33N 35°13' E 139°43'6 5.7
2015-Aug-24 02:33N 35°10' E 139°49'4 4.4
2015-Aug-24 01:33N 35°13' E 139°45'2 2.3
2015-Aug-24 00:33N 35°11' E 139°47'2 2.4
2015-Aug-23 23:33N 35°13' E 139°45'1 1.5
2015-Aug-23 22:33N 35°12' E 139°46'1 1.4
2015-Aug-23 21:33N 35°13' E 139°45'2 1.5
2015-Aug-23 20:33N 35°13' E 139°43'0 0.0
2015-Aug-23 11:09N 35°13' E 139°43'6 9.7
2015-Aug-23 10:34N 35°10' E 139°49'  

Dump ship's entire track history